sim
Sign-in with your pilot id or email,
or register
Callsign
Passwort

Schedule Details

Flight Number: OEO6405
Departure: Vancouver International Airport (CYVR) at 23:45
Arrival: Munich Airport (EDDM) at 09:55

Weather Information
Getting current METAR information for CYVR 181300Z 13003KT 2SM BR FU OVC025 16/15 A2988 RMK FU3SC5 SLP121 DENSITY ALT 200FT
Getting current METAR information for EDDM 181320Z 08011KT CAVOK 19/10 Q1024 NOSIG

Schedule Frequency

Route Map